Ana Sayfa
METAR-TAF:

METAR-TAF

Havaalanları :

Greenville, Mississipi, Amerika Birleşik Devletleri

Enlem: 33-28-58N, Boylam: 090-59-08W, yükseklik: 40 m

Güncel hava durumu gözlemi

Rapor saat 18:53 UTC de 42 dakika önce yapıldı.
Sıcaklık 37°C
Nem 50%
Basınç 1014 hPa
Görüş mesafesi: 16.1 km
4900 ft yükseklikte parçalı bulutlu
6000 ft yükseklikte parçalı bulutlu

METAR: KGLH 251853Z 10SM SCT049 SCT060 37/25 A2994 RMK AO2 SLP141 T03670250

Saat: 14:35 (19:35 UTC)

Tahmin

Rapor saat 17:34 UTC de 2 saat ve 1 dakika önce yapıldı.
Ayın 25'si saat 18 UTC'den ayın 26'si saat 18 UTC'ye kadar geçerli Tahmin
Rüzgar güney/güneybatıdan 5 kt
Görüş mesafesi: 10 km
5000 ft yükseklikte az bulutlu

TAF: KGLH 251734Z 2518/2618 21005KT P6SM FEW050

4.000'den fazla havaalanı için hava durumu gözlemleri ve tahminleri (METAR ve TAF raporları).

Kullanılabilir istasyonlar harita üzerinde sarı ve kırmızı noktalarla gösterilir.

İstasyonun adını görmek için fareyi noktanın üzerinde gezdirin.

Sonrasında hava gözlem ve tahminlerini görmek için tıklayın.

Haritayı değiştirmek için: yaklaştırmak için siyah artı işaretli yeşil düğmeye ve uzaklaştırmak için de eksi işaretli düğmeye hızla tıklayın; bitişik haritalar için yeşil okları kullanın.


METAR-TAF: